sensor_id;sensor_type;location;lat;lon;timestamp;pressure;altitude;pressure_sealevel;temperature
61189;BMP280;47054;39.716;2.904;2022-09-01T00:00:10;100162.25;;;32.84
61189;BMP280;47054;39.716;2.904;2022-09-01T00:02:56;100161.19;;;32.81
61189;BMP280;47054;39.716;2.904;2022-09-01T00:05:41;100161.94;;;32.82
61189;BMP280;47054;39.716;2.904;2022-09-01T00:08:27;100154.19;;;32.80
61189;BMP280;47054;39.716;2.904;2022-09-01T00:11:12;100155.41;;;32.79
61189;BMP280;47054;39.716;2.904;2022-09-01T00:13:57;100150.91;;;32.76
61189;BMP280;47054;39.716;2.904;2022-09-01T00:16:42;100151.94;;;32.79
61189;BMP280;47054;39.716;2.904;2022-09-01T00:19:27;100151.16;;;32.78
61189;BMP280;47054;39.716;2.904;2022-09-01T00:22:12;100153.66;;;32.76
61189;BMP280;47054;39.716;2.904;2022-09-01T00:24:57;100148.16;;;32.76
61189;BMP280;47054;39.716;2.904;2022-09-01T00:27:41;100145.41;;;32.76
61189;BMP280;47054;39.716;2.904;2022-09-01T00:30:27;100148.63;;;32.74
61189;BMP280;47054;39.716;2.904;2022-09-01T00:33:12;100145.88;;;32.74
61189;BMP280;47054;39.716;2.904;2022-09-01T00:35:57;100141.66;;;32.74
61189;BMP280;47054;39.716;2.904;2022-09-01T00:38:43;100138.16;;;32.73
61189;BMP280;47054;39.716;2.904;2022-09-01T00:41:31;100140.88;;;32.73
61189;BMP280;47054;39.716;2.904;2022-09-01T00:44:19;100141.66;;;32.74
61189;BMP280;47054;39.716;2.904;2022-09-01T00:47:06;100144.09;;;32.71
61189;BMP280;47054;39.716;2.904;2022-09-01T00:49:52;100145.34;;;32.71
61189;BMP280;47054;39.716;2.904;2022-09-01T00:52:45;100139.09;;;32.70
61189;BMP280;47054;39.716;2.904;2022-09-01T00:55:32;100143.84;;;32.69
61189;BMP280;47054;39.716;2.904;2022-09-01T00:58:17;100141.84;;;32.70
61189;BMP280;47054;39.716;2.904;2022-09-01T01:01:04;100141.09;;;32.69
61189;BMP280;47054;39.716;2.904;2022-09-01T01:03:49;100149.81;;;32.68
61189;BMP280;47054;39.716;2.904;2022-09-01T01:06:33;100145.06;;;32.68
61189;BMP280;47054;39.716;2.904;2022-09-01T01:09:19;100149.31;;;32.69
61189;BMP280;47054;39.716;2.904;2022-09-01T01:12:06;100149.81;;;32.68
61189;BMP280;47054;39.716;2.904;2022-09-01T01:14:52;100140.53;;;32.65
61189;BMP280;47054;39.716;2.904;2022-09-01T01:17:37;100140.06;;;32.67
61189;BMP280;47054;39.716;2.904;2022-09-01T01:20:25;100138.81;;;32.68
61189;BMP280;47054;39.716;2.904;2022-09-01T01:23:39;100141.56;;;32.68
61189;BMP280;47054;39.716;2.904;2022-09-01T01:26:24;100134.28;;;32.65
61189;BMP280;47054;39.716;2.904;2022-09-01T01:29:08;100137.78;;;32.65
61189;BMP280;47054;39.716;2.904;2022-09-01T01:31:53;100128.81;;;32.65
61189;BMP280;47054;39.716;2.904;2022-09-01T01:34:39;100131.53;;;32.65
61189;BMP280;47054;39.716;2.904;2022-09-01T01:37:25;100121.03;;;32.63
61189;BMP280;47054;39.716;2.904;2022-09-01T01:40:16;100132.31;;;32.65
61189;BMP280;47054;39.716;2.904;2022-09-01T01:43:01;100124.53;;;32.64
61189;BMP280;47054;39.716;2.904;2022-09-01T01:45:48;100132.03;;;32.63
61189;BMP280;47054;39.716;2.904;2022-09-01T01:48:38;100134.78;;;32.63
61189;BMP280;47054;39.716;2.904;2022-09-01T01:51:23;100125.03;;;32.62
61189;BMP280;47054;39.716;2.904;2022-09-01T01:54:11;100130.25;;;32.60
61189;BMP280;47054;39.716;2.904;2022-09-01T01:56:59;100136.00;;;32.62
61189;BMP280;47054;39.716;2.904;2022-09-01T01:59:44;100141.94;;;32.61
61189;BMP280;47054;39.716;2.904;2022-09-01T02:05:38;100135.72;;;32.60
61189;BMP280;47054;39.716;2.904;2022-09-01T02:08:23;100130.25;;;32.60
61189;BMP280;47054;39.716;2.904;2022-09-01T02:11:12;100126.75;;;32.60
61189;BMP280;47054;39.716;2.904;2022-09-01T02:14:00;100129.50;;;32.60
61189;BMP280;47054;39.716;2.904;2022-09-01T02:16:45;100126.75;;;32.60
61189;BMP280;47054;39.716;2.904;2022-09-01T02:19:29;100127.50;;;32.60
61189;BMP280;47054;39.716;2.904;2022-09-01T02:22:14;100128.22;;;32.61
61189;BMP280;47054;39.716;2.904;2022-09-01T02:24:58;100126.75;;;32.60
61189;BMP280;47054;39.716;2.904;2022-09-01T02:27:43;100126.00;;;32.59
61189;BMP280;47054;39.716;2.904;2022-09-01T02:30:30;100123.72;;;32.58
61189;BMP280;47054;39.716;2.904;2022-09-01T02:33:20;100126.25;;;32.61
61189;BMP280;47054;39.716;2.904;2022-09-01T02:36:09;100127.50;;;32.60
61189;BMP280;47054;39.716;2.904;2022-09-01T02:38:57;100123.25;;;32.59
61189;BMP280;47054;39.716;2.904;2022-09-01T02:41:42;100117.25;;;32.61
61189;BMP280;47054;39.716;2.904;2022-09-01T02:44:27;100124.00;;;32.60
61189;BMP280;47054;39.716;2.904;2022-09-01T02:47:14;100115.50;;;32.58
61189;BMP280;47054;39.716;2.904;2022-09-01T02:50:00;100110.28;;;32.60
61189;BMP280;47054;39.716;2.904;2022-09-01T02:52:45;100110.72;;;32.58
61189;BMP280;47054;39.716;2.904;2022-09-01T02:55:33;100114.25;;;32.59
61189;BMP280;47054;39.716;2.904;2022-09-01T02:58:17;100109.53;;;32.59
61189;BMP280;47054;39.716;2.904;2022-09-01T03:01:03;100101.28;;;32.59
61189;BMP280;47054;39.716;2.904;2022-09-01T03:03:49;100099.03;;;32.58
61189;BMP280;47054;39.716;2.904;2022-09-01T03:06:36;100100.53;;;32.59
61189;BMP280;47054;39.716;2.904;2022-09-01T03:09:21;100099.75;;;32.58
61189;BMP280;47054;39.716;2.904;2022-09-01T03:12:06;100098.25;;;32.57
61189;BMP280;47054;39.716;2.904;2022-09-01T03:14:51;100094.25;;;32.58
61189;BMP280;47054;39.716;2.904;2022-09-01T03:17:36;100101.75;;;32.58
61189;BMP280;47054;39.716;2.904;2022-09-01T03:20:20;100115.50;;;32.58
61189;BMP280;47054;39.716;2.904;2022-09-01T03:23:07;100115.50;;;32.58
61189;BMP280;47054;39.716;2.904;2022-09-01T03:25:53;100115.50;;;32.58
61189;BMP280;47054;39.716;2.904;2022-09-01T03:28:38;100110.47;;;32.56
61189;BMP280;47054;39.716;2.904;2022-09-01T03:31:24;100111.22;;;32.57
61189;BMP280;47054;39.716;2.904;2022-09-01T03:34:11;100113.97;;;32.57
61189;BMP280;47054;39.716;2.904;2022-09-01T03:37:02;100111.22;;;32.57
61189;BMP280;47054;39.716;2.904;2022-09-01T03:39:51;100108.97;;;32.55
61189;BMP280;47054;39.716;2.904;2022-09-01T03:42:36;100099.97;;;32.55
61189;BMP280;47054;39.716;2.904;2022-09-01T03:45:21;100110.47;;;32.56
61189;BMP280;47054;39.716;2.904;2022-09-01T03:48:09;100105.72;;;32.57
61189;BMP280;47054;39.716;2.904;2022-09-01T03:50:56;100102.25;;;32.56
61189;BMP280;47054;39.716;2.904;2022-09-01T03:53:49;100096.75;;;32.56
61189;BMP280;47054;39.716;2.904;2022-09-01T03:56:37;100099.22;;;32.54
61189;BMP280;47054;39.716;2.904;2022-09-01T03:59:26;100094.97;;;32.53
61189;BMP280;47054;39.716;2.904;2022-09-01T04:02:11;100106.69;;;32.54
61189;BMP280;47054;39.716;2.904;2022-09-01T04:04:56;100098.44;;;32.54
61189;BMP280;47054;39.716;2.904;2022-09-01T04:07:43;100098.97;;;32.52
61189;BMP280;47054;39.716;2.904;2022-09-01T04:10:31;100099.72;;;32.53
61189;BMP280;47054;39.716;2.904;2022-09-01T04:13:28;100096.47;;;32.54
61189;BMP280;47054;39.716;2.904;2022-09-01T04:16:22;100095.69;;;32.54
61189;BMP280;47054;39.716;2.904;2022-09-01T04:19:25;100084.91;;;32.50
61189;BMP280;47054;39.716;2.904;2022-09-01T04:22:12;100090.41;;;32.50
61189;BMP280;47054;39.716;2.904;2022-09-01T04:25:04;100086.44;;;32.51
61189;BMP280;47054;39.716;2.904;2022-09-01T04:27:51;100084.91;;;32.50
61189;BMP280;47054;39.716;2.904;2022-09-01T04:30:39;100096.66;;;32.51
61189;BMP280;47054;39.716;2.904;2022-09-01T04:33:27;100104.13;;;32.50
61189;BMP280;47054;39.716;2.904;2022-09-01T04:36:26;100095.44;;;32.52
61189;BMP280;47054;39.716;2.904;2022-09-01T04:39:13;100083.44;;;32.49
61189;BMP280;47054;39.716;2.904;2022-09-01T04:41:58;100090.41;;;32.50
61189;BMP280;47054;39.716;2.904;2022-09-01T04:44:43;100088.94;;;32.49
61189;BMP280;47054;39.716;2.904;2022-09-01T04:47:30;100087.41;;;32.48
61189;BMP280;47054;39.716;2.904;2022-09-01T04:50:16;100093.66;;;32.49
61189;BMP280;47054;39.716;2.904;2022-09-01T04:53:17;100091.13;;;32.45
61189;BMP280;47054;39.716;2.904;2022-09-01T04:56:06;100088.66;;;32.47
61189;BMP280;47054;39.716;2.904;2022-09-01T04:58:57;100094.16;;;32.47
61189;BMP280;47054;39.716;2.904;2022-09-01T05:01:42;100096.88;;;32.47
61189;BMP280;47054;39.716;2.904;2022-09-01T05:04:30;100094.16;;;32.47
61189;BMP280;47054;39.716;2.904;2022-09-01T05:07:18;100102.38;;;32.47
61189;BMP280;47054;39.716;2.904;2022-09-01T05:10:05;100107.09;;;32.47
61189;BMP280;47054;39.716;2.904;2022-09-01T05:13:00;100111.84;;;32.46
61189;BMP280;47054;39.716;2.904;2022-09-01T05:15:46;100117.34;;;32.46
61189;BMP280;47054;39.716;2.904;2022-09-01T05:18:32;100111.84;;;32.46
61189;BMP280;47054;39.716;2.904;2022-09-01T05:21:19;100114.59;;;32.46
61189;BMP280;47054;39.716;2.904;2022-09-01T05:24:06;100110.31;;;32.45
61189;BMP280;47054;39.716;2.904;2022-09-01T05:26:53;100112.34;;;32.45
61189;BMP280;47054;39.716;2.904;2022-09-01T05:29:38;100111.09;;;32.46
61189;BMP280;47054;39.716;2.904;2022-09-01T05:32:25;100102.31;;;32.42
61189;BMP280;47054;39.716;2.904;2022-09-01T05:35:11;100106.56;;;32.43
61189;BMP280;47054;39.716;2.904;2022-09-01T05:37:55;100101.06;;;32.43
61189;BMP280;47054;39.716;2.904;2022-09-01T05:40:42;100099.81;;;32.44
61189;BMP280;47054;39.716;2.904;2022-09-01T05:43:27;100095.59;;;32.43
61189;BMP280;47054;39.716;2.904;2022-09-01T05:46:14;100098.31;;;32.43
61189;BMP280;47054;39.716;2.904;2022-09-01T05:49:00;100088.44;;;32.31
61189;BMP280;47054;39.716;2.904;2022-09-01T05:51:48;100105.81;;;32.42
61189;BMP280;47054;39.716;2.904;2022-09-01T05:54:36;100098.03;;;32.41
61189;BMP280;47054;39.716;2.904;2022-09-01T05:57:21;100100.78;;;32.41
61189;BMP280;47054;39.716;2.904;2022-09-01T06:00:08;100096.81;;;32.42
61189;BMP280;47054;39.716;2.904;2022-09-01T06:02:57;100093.06;;;32.39
61189;BMP280;47054;39.716;2.904;2022-09-01T06:05:43;100103.28;;;32.39
61189;BMP280;47054;39.716;2.904;2022-09-01T06:08:35;100091.53;;;32.38
61189;BMP280;47054;39.716;2.904;2022-09-01T06:11:21;100093.78;;;32.40
61189;BMP280;47054;39.716;2.904;2022-09-01T06:14:08;100102.50;;;32.38
61189;BMP280;47054;39.716;2.904;2022-09-01T06:16:54;100108.00;;;32.38
61189;BMP280;47054;39.716;2.904;2022-09-01T06:19:39;100110.75;;;32.38
61189;BMP280;47054;39.716;2.904;2022-09-01T06:22:26;100109.97;;;32.38
61189;BMP280;47054;39.716;2.904;2022-09-01T06:25:12;100115.47;;;32.38
61189;BMP280;47054;39.716;2.904;2022-09-01T06:28:01;100111.22;;;32.37
61189;BMP280;47054;39.716;2.904;2022-09-01T06:30:49;100124.47;;;32.38
61189;BMP280;47054;39.716;2.904;2022-09-01T06:33:34;100124.19;;;32.36
61189;BMP280;47054;39.716;2.904;2022-09-01T06:36:20;100121.44;;;32.36
61189;BMP280;47054;39.716;2.904;2022-09-01T06:39:07;100122.13;;;32.31
61189;BMP280;47054;39.716;2.904;2022-09-01T06:41:52;100127.69;;;32.37
61189;BMP280;47054;39.716;2.904;2022-09-01T06:44:42;100130.13;;;32.35
61189;BMP280;47054;39.716;2.904;2022-09-01T06:47:27;100133.66;;;32.35
61189;BMP280;47054;39.716;2.904;2022-09-01T06:50:18;100139.41;;;32.37
61189;BMP280;47054;39.716;2.904;2022-09-01T06:53:05;100137.63;;;32.34
61189;BMP280;47054;39.716;2.904;2022-09-01T06:55:54;100134.91;;;32.34
61189;BMP280;47054;39.716;2.904;2022-09-01T06:58:40;100137.84;;;32.31
61189;BMP280;47054;39.716;2.904;2022-09-01T07:01:28;100145.09;;;32.34
61189;BMP280;47054;39.716;2.904;2022-09-01T07:04:14;100134.13;;;32.34
61189;BMP280;47054;39.716;2.904;2022-09-01T07:07:11;100136.63;;;32.32
61189;BMP280;47054;39.716;2.904;2022-09-01T07:10:14;100145.59;;;32.32
61189;BMP280;47054;39.716;2.904;2022-09-01T07:13:04;100140.09;;;32.32
61189;BMP280;47054;39.716;2.904;2022-09-01T07:15:53;100142.38;;;32.34
61189;BMP280;47054;39.716;2.904;2022-09-01T07:18:38;100144.09;;;32.31
61189;BMP280;47054;39.716;2.904;2022-09-01T07:21:24;100137.84;;;32.31
61189;BMP280;47054;39.716;2.904;2022-09-01T07:24:10;100149.56;;;32.31
61189;BMP280;47054;39.716;2.904;2022-09-01T07:26:57;100146.81;;;32.31
61189;BMP280;47054;39.716;2.904;2022-09-01T07:29:42;100137.06;;;32.30
61189;BMP280;47054;39.716;2.904;2022-09-01T07:32:27;100154.28;;;32.31
61189;BMP280;47054;39.716;2.904;2022-09-01T07:35:16;100138.09;;;32.33
61189;BMP280;47054;39.716;2.904;2022-09-01T07:38:03;100145.59;;;32.32
61189;BMP280;47054;39.716;2.904;2022-09-01T07:40:51;100141.34;;;32.31
61189;BMP280;47054;39.716;2.904;2022-09-01T07:43:58;100144.84;;;32.32
61189;BMP280;47054;39.716;2.904;2022-09-01T07:47:20;100141.28;;;32.26
61189;BMP280;47054;39.716;2.904;2022-09-01T07:50:08;100144.00;;;32.26
61189;BMP280;47054;39.716;2.904;2022-09-01T07:52:56;100147.50;;;32.26
61189;BMP280;47054;39.716;2.904;2022-09-01T07:55:41;100140.75;;;32.27
61189;BMP280;47054;39.716;2.904;2022-09-01T07:58:27;100143.06;;;32.29
61189;BMP280;47054;39.716;2.904;2022-09-01T08:01:24;100136.81;;;32.28
61189;BMP280;47054;39.716;2.904;2022-09-01T08:04:09;100137.56;;;32.29
61189;BMP280;47054;39.716;2.904;2022-09-01T08:06:54;100138.31;;;32.29
61189;BMP280;47054;39.716;2.904;2022-09-01T08:09:39;100131.31;;;32.28
61189;BMP280;47054;39.716;2.904;2022-09-01T08:12:24;100132.81;;;32.29
61189;BMP280;47054;39.716;2.904;2022-09-01T08:15:11;100125.53;;;32.26
61189;BMP280;47054;39.716;2.904;2022-09-01T08:17:56;100130.81;;;32.30
61189;BMP280;47054;39.716;2.904;2022-09-01T08:20:43;100126.59;;;32.29
61189;BMP280;47054;39.716;2.904;2022-09-01T08:23:48;100125.81;;;32.28
61189;BMP280;47054;39.716;2.904;2022-09-01T08:26:33;100127.34;;;32.29
61189;BMP280;47054;39.716;2.904;2022-09-01T08:29:19;100122.56;;;32.30
61189;BMP280;47054;39.716;2.904;2022-09-01T08:32:04;100128.06;;;32.30
61189;BMP280;47054;39.716;2.904;2022-09-01T08:34:48;100116.34;;;32.29
61189;BMP280;47054;39.716;2.904;2022-09-01T08:37:34;100123.09;;;32.28
61189;BMP280;47054;39.716;2.904;2022-09-01T08:40:19;100119.84;;;32.30
61189;BMP280;47054;39.716;2.904;2022-09-01T08:43:29;100124.09;;;32.31
61189;BMP280;47054;39.716;2.904;2022-09-01T08:46:27;100124.09;;;32.31
61189;BMP280;47054;39.716;2.904;2022-09-01T08:49:18;100119.84;;;32.30
61189;BMP280;47054;39.716;2.904;2022-09-01T08:55:27;100114.09;;;32.28
61189;BMP280;47054;39.716;2.904;2022-09-01T08:58:16;100124.31;;;32.27
61189;BMP280;47054;39.716;2.904;2022-09-01T09:01:14;100123.09;;;32.28
61189;BMP280;47054;39.716;2.904;2022-09-01T09:10:05;100119.09;;;32.29
61189;BMP280;47054;39.716;2.904;2022-09-01T09:13:17;100125.06;;;32.28
61189;BMP280;47054;39.716;2.904;2022-09-01T09:16:12;100128.28;;;32.26
61189;BMP280;47054;39.716;2.904;2022-09-01T09:19:06;100135.28;;;32.27
61189;BMP280;47054;39.716;2.904;2022-09-01T09:21:53;100130.28;;;32.26
61189;BMP280;47054;39.716;2.904;2022-09-01T09:24:52;100129.06;;;32.27
61189;BMP280;47054;39.716;2.904;2022-09-01T09:27:40;100136.22;;;32.24
61189;BMP280;47054;39.716;2.904;2022-09-01T09:30:28;100137.75;;;32.25
61189;BMP280;47054;39.716;2.904;2022-09-01T09:33:37;100138.78;;;32.28
61189;BMP280;47054;39.716;2.904;2022-09-01T09:36:42;100131.03;;;32.26
61189;BMP280;47054;39.716;2.904;2022-09-01T09:39:29;100142.97;;;32.23
61189;BMP280;47054;39.716;2.904;2022-09-01T09:42:14;100133.97;;;32.23
61189;BMP280;47054;39.716;2.904;2022-09-01T09:44:59;100129.72;;;32.22
61189;BMP280;47054;39.716;2.904;2022-09-01T09:47:44;100137.47;;;32.23
61189;BMP280;47054;39.716;2.904;2022-09-01T09:50:34;100138.53;;;32.26
61189;BMP280;47054;39.716;2.904;2022-09-01T09:53:25;100132.28;;;32.25
61189;BMP280;47054;39.716;2.904;2022-09-01T09:56:19;100131.97;;;32.23
61189;BMP280;47054;39.716;2.904;2022-09-01T09:59:29;100131.78;;;32.27
61189;BMP280;47054;39.716;2.904;2022-09-01T10:05:35;100133.03;;;32.26
61189;BMP280;47054;39.716;2.904;2022-09-01T10:11:38;100132.28;;;32.25
61189;BMP280;47054;39.716;2.904;2022-09-01T10:17:24;100122.25;;;32.22
61189;BMP280;47054;39.716;2.904;2022-09-01T10:23:04;100119.50;;;32.22
61189;BMP280;47054;39.716;2.904;2022-09-01T10:25:49;100114.75;;;32.23
61189;BMP280;47054;39.716;2.904;2022-09-01T10:28:40;100114.75;;;32.23
61189;BMP280;47054;39.716;2.904;2022-09-01T10:31:28;100112.78;;;32.23
61189;BMP280;47054;39.716;2.904;2022-09-01T10:34:15;100104.53;;;32.23
61189;BMP280;47054;39.716;2.904;2022-09-01T10:37:01;100102.56;;;32.24
61189;BMP280;47054;39.716;2.904;2022-09-01T10:43:21;100099.81;;;32.24
61189;BMP280;47054;39.716;2.904;2022-09-01T10:49:18;100084.56;;;32.23
61189;BMP280;47054;39.716;2.904;2022-09-01T10:52:03;100074.31;;;32.18
61189;BMP280;47054;39.716;2.904;2022-09-01T10:54:57;100082.59;;;32.23
61189;BMP280;47054;39.716;2.904;2022-09-01T11:09:01;100058.19;;;32.25
61189;BMP280;47054;39.716;2.904;2022-09-01T11:15:06;100046.16;;;32.23
61189;BMP280;47054;39.716;2.904;2022-09-01T11:18:14;100049.66;;;32.23
61189;BMP280;47054;39.716;2.904;2022-09-01T11:21:28;100051.16;;;32.24
61189;BMP280;47054;39.716;2.904;2022-09-01T11:24:50;100036.72;;;32.24
61189;BMP280;47054;39.716;2.904;2022-09-01T11:30:38;100042.69;;;32.22
61189;BMP280;47054;39.716;2.904;2022-09-01T11:33:55;100033.97;;;32.24
61189;BMP280;47054;39.716;2.904;2022-09-01T11:39:47;100030.75;;;32.25
61189;BMP280;47054;39.716;2.904;2022-09-01T11:42:39;100025.75;;;32.24
61189;BMP280;47054;39.716;2.904;2022-09-01T11:45:29;100033.97;;;32.24
61189;BMP280;47054;39.716;2.904;2022-09-01T11:48:15;100033.41;;;32.20
61189;BMP280;47054;39.716;2.904;2022-09-01T11:51:02;100031.41;;;32.20
61189;BMP280;47054;39.716;2.904;2022-09-01T11:53:48;100034.94;;;32.21
61189;BMP280;47054;39.716;2.904;2022-09-01T11:56:33;100036.44;;;32.22
61189;BMP280;47054;39.716;2.904;2022-09-01T11:59:36;100038.97;;;32.25
61189;BMP280;47054;39.716;2.904;2022-09-01T12:02:27;100041.72;;;32.25
61189;BMP280;47054;39.716;2.904;2022-09-01T12:05:35;100034.50;;;32.28
61189;BMP280;47054;39.716;2.904;2022-09-01T12:08:22;100042.50;;;32.26
61189;BMP280;47054;39.716;2.904;2022-09-01T12:11:09;100035.28;;;32.28
61189;BMP280;47054;39.716;2.904;2022-09-01T12:14:18;100040.78;;;32.28
61189;BMP280;47054;39.716;2.904;2022-09-01T12:17:04;100036.03;;;32.29
61189;BMP280;47054;39.716;2.904;2022-09-01T12:19:50;100035.28;;;32.28
61189;BMP280;47054;39.716;2.904;2022-09-01T12:22:34;100036.78;;;32.29
61189;BMP280;47054;39.716;2.904;2022-09-01T12:25:21;100024.56;;;32.30
61189;BMP280;47054;39.716;2.904;2022-09-01T12:28:06;100032.03;;;32.30
61189;BMP280;47054;39.716;2.904;2022-09-01T12:30:51;100020.59;;;32.31
61189;BMP280;47054;39.716;2.904;2022-09-01T12:33:39;100029.09;;;32.33
61189;BMP280;47054;39.716;2.904;2022-09-01T12:36:35;100023.88;;;32.35
61189;BMP280;47054;39.716;2.904;2022-09-01T12:39:22;100028.59;;;32.35
61189;BMP280;47054;39.716;2.904;2022-09-01T12:48:25;100021.91;;;32.36
61189;BMP280;47054;39.716;2.904;2022-09-01T12:51:19;100017.44;;;32.38
61189;BMP280;47054;39.716;2.904;2022-09-01T12:54:05;100008.91;;;32.36
61189;BMP280;47054;39.716;2.904;2022-09-01T12:56:50;100006.47;;;32.38
61189;BMP280;47054;39.716;2.904;2022-09-01T12:59:34;100007.22;;;32.39
61189;BMP280;47054;39.716;2.904;2022-09-01T13:02:37;100009.75;;;32.42
61189;BMP280;47054;39.716;2.904;2022-09-01T13:05:26;100015.69;;;32.41
61189;BMP280;47054;39.716;2.904;2022-09-01T13:08:16;100010.97;;;32.41
61189;BMP280;47054;39.716;2.904;2022-09-01T13:13:48;99997.25;;;32.41
61189;BMP280;47054;39.716;2.904;2022-09-01T13:16:33;100007.75;;;32.43
61189;BMP280;47054;39.716;2.904;2022-09-01T13:19:18;100010.03;;;32.44
61189;BMP280;47054;39.716;2.904;2022-09-01T13:22:04;100002.56;;;32.45
61189;BMP280;47054;39.716;2.904;2022-09-01T13:24:49;99996.59;;;32.46
61189;BMP280;47054;39.716;2.904;2022-09-01T13:27:33;99996.59;;;32.46
61189;BMP280;47054;39.716;2.904;2022-09-01T13:30:20;100000.81;;;32.47
61189;BMP280;47054;39.716;2.904;2022-09-01T13:33:05;99995.34;;;32.47
61189;BMP280;47054;39.716;2.904;2022-09-01T13:35:52;99995.81;;;32.46
61189;BMP280;47054;39.716;2.904;2022-09-01T13:38:37;99998.06;;;32.47
61189;BMP280;47054;39.716;2.904;2022-09-01T13:41:22;99992.09;;;32.49
61189;BMP280;47054;39.716;2.904;2022-09-01T13:44:06;99993.63;;;32.50
61189;BMP280;47054;39.716;2.904;2022-09-01T13:46:54;99986.34;;;32.47
61189;BMP280;47054;39.716;2.904;2022-09-01T13:49:39;99989.63;;;32.51
61189;BMP280;47054;39.716;2.904;2022-09-01T13:52:23;99987.63;;;32.51
61189;BMP280;47054;39.716;2.904;2022-09-01T13:55:14;99984.44;;;32.53
61189;BMP280;47054;39.716;2.904;2022-09-01T13:57:58;99980.16;;;32.52
61189;BMP280;47054;39.716;2.904;2022-09-01T14:00:45;99974.69;;;32.52
61189;BMP280;47054;39.716;2.904;2022-09-01T14:03:30;99987.19;;;32.53
61189;BMP280;47054;39.716;2.904;2022-09-01T14:06:15;99978.19;;;32.52
61189;BMP280;47054;39.716;2.904;2022-09-01T14:09:00;99987.91;;;32.53
61189;BMP280;47054;39.716;2.904;2022-09-01T14:11:44;99987.91;;;32.53
61189;BMP280;47054;39.716;2.904;2022-09-01T14:14:29;99981.19;;;32.54
61189;BMP280;47054;39.716;2.904;2022-09-01T14:17:13;99978.19;;;32.52
61189;BMP280;47054;39.716;2.904;2022-09-01T14:19:57;99976.72;;;32.57
61189;BMP280;47054;39.716;2.904;2022-09-01T14:22:42;99971.72;;;32.55
61189;BMP280;47054;39.716;2.904;2022-09-01T14:25:28;99969.22;;;32.57
61189;BMP280;47054;39.716;2.904;2022-09-01T14:28:14;99954.25;;;32.58
61189;BMP280;47054;39.716;2.904;2022-09-01T14:30:59;99968.75;;;32.59
61189;BMP280;47054;39.716;2.904;2022-09-01T14:33:48;99967.53;;;32.60
61189;BMP280;47054;39.716;2.904;2022-09-01T14:36:33;99967.53;;;32.60
61189;BMP280;47054;39.716;2.904;2022-09-01T14:39:18;99953.28;;;32.61
61189;BMP280;47054;39.716;2.904;2022-09-01T14:42:02;99967.03;;;32.61
61189;BMP280;47054;39.716;2.904;2022-09-01T14:44:51;99962.28;;;32.62
61189;BMP280;47054;39.716;2.904;2022-09-01T14:47:36;99956.81;;;32.62
61189;BMP280;47054;39.716;2.904;2022-09-01T14:50:22;99946.06;;;32.64
61189;BMP280;47054;39.716;2.904;2022-09-01T14:53:07;99955.28;;;32.61
61189;BMP280;47054;39.716;2.904;2022-09-01T14:55:51;99952.31;;;32.64
61189;BMP280;47054;39.716;2.904;2022-09-01T14:58:36;99948.34;;;32.65
61189;BMP280;47054;39.716;2.904;2022-09-01T15:01:20;99935.59;;;32.62
61189;BMP280;47054;39.716;2.904;2022-09-01T15:04:06;99934.16;;;32.67
61189;BMP280;47054;39.716;2.904;2022-09-01T15:06:51;99931.41;;;32.67
61189;BMP280;47054;39.716;2.904;2022-09-01T15:09:35;99923.91;;;32.67
61189;BMP280;47054;39.716;2.904;2022-09-01T15:12:21;99926.66;;;32.67
61189;BMP280;47054;39.716;2.904;2022-09-01T15:15:07;99917.94;;;32.69
61189;BMP280;47054;39.716;2.904;2022-09-01T15:17:53;99901.38;;;32.58
61189;BMP280;47054;39.716;2.904;2022-09-01T15:20:39;99916.69;;;32.70
61189;BMP280;47054;39.716;2.904;2022-09-01T15:23:30;99917.94;;;32.69
61189;BMP280;47054;39.716;2.904;2022-09-01T15:26:16;99922.19;;;32.70
61189;BMP280;47054;39.716;2.904;2022-09-01T15:29:01;99931.19;;;32.71
61189;BMP280;47054;39.716;2.904;2022-09-01T15:31:45;99914.22;;;32.72
61189;BMP280;47054;39.716;2.904;2022-09-01T15:34:30;99916.94;;;32.72
61189;BMP280;47054;39.716;2.904;2022-09-01T15:37:14;99923.22;;;32.72
61189;BMP280;47054;39.716;2.904;2022-09-01T15:39:59;99916.19;;;32.71
61189;BMP280;47054;39.716;2.904;2022-09-01T15:42:43;99895.91;;;32.63
61189;BMP280;47054;39.716;2.904;2022-09-01T15:45:28;99913.75;;;32.74
61189;BMP280;47054;39.716;2.904;2022-09-01T15:48:13;99910.25;;;32.73
61189;BMP280;47054;39.716;2.904;2022-09-01T15:54:06;99913.75;;;32.74
61189;BMP280;47054;39.716;2.904;2022-09-01T15:56:51;99912.47;;;32.74
61189;BMP280;47054;39.716;2.904;2022-09-01T15:59:36;99916.75;;;32.76
61189;BMP280;47054;39.716;2.904;2022-09-01T16:02:23;99919.00;;;32.77
61189;BMP280;47054;39.716;2.904;2022-09-01T16:05:10;99912.75;;;32.77
61189;BMP280;47054;39.716;2.904;2022-09-01T16:07:55;99910.28;;;32.79
61189;BMP280;47054;39.716;2.904;2022-09-01T16:10:40;99898.28;;;32.76
61189;BMP280;47054;39.716;2.904;2022-09-01T16:13:25;99903.28;;;32.78
61189;BMP280;47054;39.716;2.904;2022-09-01T16:22:09;99897.56;;;32.81
61189;BMP280;47054;39.716;2.904;2022-09-01T16:25:03;99895.56;;;32.82
61189;BMP280;47054;39.716;2.904;2022-09-01T16:27:50;99902.31;;;32.81
61189;BMP280;47054;39.716;2.904;2022-09-01T16:30:35;99894.81;;;32.81
61189;BMP280;47054;39.716;2.904;2022-09-01T16:33:20;99890.06;;;32.82
61189;BMP280;47054;39.716;2.904;2022-09-01T16:36:16;99879.59;;;32.80
61189;BMP280;47054;39.716;2.904;2022-09-01T16:48:44;99888.34;;;32.84
61189;BMP280;47054;39.716;2.904;2022-09-01T16:51:51;99892.59;;;32.85
61189;BMP280;47054;39.716;2.904;2022-09-01T16:54:45;99886.84;;;32.83
61189;BMP280;47054;39.716;2.904;2022-09-01T17:00:22;99892.59;;;32.85
61189;BMP280;47054;39.716;2.904;2022-09-01T17:03:28;99878.41;;;32.87
61189;BMP280;47054;39.716;2.904;2022-09-01T17:09:34;99874.41;;;32.88
61189;BMP280;47054;39.716;2.904;2022-09-01T17:12:41;99873.16;;;32.89
61189;BMP280;47054;39.716;2.904;2022-09-01T17:15:34;99882.88;;;32.90
61189;BMP280;47054;39.716;2.904;2022-09-01T17:18:57;99875.91;;;32.89
61189;BMP280;47054;39.716;2.904;2022-09-01T17:22:04;99880.16;;;32.90
61189;BMP280;47054;39.716;2.904;2022-09-01T17:24:57;99875.91;;;32.89